sensor_id;sensor_type;location;lat;lon;timestamp;P1;durP1;ratioP1;P2;durP2;ratioP2
68216;SDS011;55037;52.354;4.992;2023-06-19T00:02:14;11.80;;;6.57;;
68216;SDS011;55037;52.354;4.992;2023-06-19T00:04:41;10.20;;;7.35;;
68216;SDS011;55037;52.354;4.992;2023-06-19T00:07:09;8.70;;;7.03;;
68216;SDS011;55037;52.354;4.992;2023-06-19T00:09:36;10.90;;;6.47;;
68216;SDS011;55037;52.354;4.992;2023-06-19T00:12:03;9.63;;;7.13;;
68216;SDS011;55037;52.354;4.992;2023-06-19T00:14:31;7.90;;;5.97;;
68216;SDS011;55037;52.354;4.992;2023-06-19T00:16:59;9.88;;;7.18;;
68216;SDS011;55037;52.354;4.992;2023-06-19T00:19:27;9.60;;;7.25;;
68216;SDS011;55037;52.354;4.992;2023-06-19T00:21:54;7.80;;;6.70;;
68216;SDS011;55037;52.354;4.992;2023-06-19T00:24:24;9.73;;;7.25;;
68216;SDS011;55037;52.354;4.992;2023-06-19T00:26:51;9.00;;;7.27;;
68216;SDS011;55037;52.354;4.992;2023-06-19T00:29:18;10.25;;;5.32;;
68216;SDS011;55037;52.354;4.992;2023-06-19T00:31:46;11.15;;;5.07;;
68216;SDS011;55037;52.354;4.992;2023-06-19T00:34:14;7.13;;;5.10;;
68216;SDS011;55037;52.354;4.992;2023-06-19T00:36:41;8.52;;;7.00;;
68216;SDS011;55037;52.354;4.992;2023-06-19T00:39:09;10.57;;;5.43;;
68216;SDS011;55037;52.354;4.992;2023-06-19T00:41:36;4.63;;;3.90;;
68216;SDS011;55037;52.354;4.992;2023-06-19T00:44:04;6.22;;;4.35;;
68216;SDS011;55037;52.354;4.992;2023-06-19T00:46:31;11.45;;;6.38;;
68216;SDS011;55037;52.354;4.992;2023-06-19T00:48:59;10.40;;;5.80;;
68216;SDS011;55037;52.354;4.992;2023-06-19T00:51:26;7.17;;;5.33;;
68216;SDS011;55037;52.354;4.992;2023-06-19T00:53:53;7.78;;;5.43;;
68216;SDS011;55037;52.354;4.992;2023-06-19T00:56:21;8.68;;;5.35;;
68216;SDS011;55037;52.354;4.992;2023-06-19T00:58:49;6.63;;;3.55;;
68216;SDS011;55037;52.354;4.992;2023-06-19T01:01:19;6.03;;;3.42;;
68216;SDS011;55037;52.354;4.992;2023-06-19T01:03:48;6.83;;;4.23;;
68216;SDS011;55037;52.354;4.992;2023-06-19T01:06:20;7.35;;;5.00;;
68216;SDS011;55037;52.354;4.992;2023-06-19T01:11:28;7.35;;;4.53;;
68216;SDS011;55037;52.354;4.992;2023-06-19T01:13:59;4.70;;;3.30;;
68216;SDS011;55037;52.354;4.992;2023-06-19T01:16:32;4.80;;;3.53;;
68216;SDS011;55037;52.354;4.992;2023-06-19T01:19:01;4.18;;;3.03;;
68216;SDS011;55037;52.354;4.992;2023-06-19T01:21:32;5.10;;;3.45;;
68216;SDS011;55037;52.354;4.992;2023-06-19T01:24:00;4.70;;;3.25;;
68216;SDS011;55037;52.354;4.992;2023-06-19T01:26:28;8.50;;;2.70;;
68216;SDS011;55037;52.354;4.992;2023-06-19T01:28:56;4.70;;;2.80;;
68216;SDS011;55037;52.354;4.992;2023-06-19T01:31:37;4.30;;;2.53;;
68216;SDS011;55037;52.354;4.992;2023-06-19T01:34:25;3.08;;;2.20;;
68216;SDS011;55037;52.354;4.992;2023-06-19T01:36:56;3.05;;;1.88;;
68216;SDS011;55037;52.354;4.992;2023-06-19T01:39:24;2.92;;;1.98;;
68216;SDS011;55037;52.354;4.992;2023-06-19T01:41:52;6.17;;;1.67;;
68216;SDS011;55037;52.354;4.992;2023-06-19T01:44:20;8.25;;;1.70;;
68216;SDS011;55037;52.354;4.992;2023-06-19T01:46:49;3.58;;;1.95;;
68216;SDS011;55037;52.354;4.992;2023-06-19T01:49:17;3.72;;;2.22;;
68216;SDS011;55037;52.354;4.992;2023-06-19T01:51:45;3.83;;;2.00;;
68216;SDS011;55037;52.354;4.992;2023-06-19T01:54:13;5.20;;;1.90;;
68216;SDS011;55037;52.354;4.992;2023-06-19T01:56:40;3.35;;;2.03;;
68216;SDS011;55037;52.354;4.992;2023-06-19T01:59:07;4.90;;;2.38;;
68216;SDS011;55037;52.354;4.992;2023-06-19T02:01:35;3.38;;;2.00;;
68216;SDS011;55037;52.354;4.992;2023-06-19T02:04:02;5.43;;;2.33;;
68216;SDS011;55037;52.354;4.992;2023-06-19T02:06:31;3.40;;;2.23;;
68216;SDS011;55037;52.354;4.992;2023-06-19T02:08:58;4.03;;;2.10;;
68216;SDS011;55037;52.354;4.992;2023-06-19T02:11:25;3.50;;;1.98;;
68216;SDS011;55037;52.354;4.992;2023-06-19T02:13:54;3.33;;;2.40;;
68216;SDS011;55037;52.354;4.992;2023-06-19T02:16:21;9.07;;;3.22;;
68216;SDS011;55037;52.354;4.992;2023-06-19T02:18:48;5.63;;;2.73;;
68216;SDS011;55037;52.354;4.992;2023-06-19T02:21:15;5.25;;;3.75;;
68216;SDS011;55037;52.354;4.992;2023-06-19T02:23:43;6.65;;;3.60;;
68216;SDS011;55037;52.354;4.992;2023-06-19T02:26:10;5.68;;;3.65;;
68216;SDS011;55037;52.354;4.992;2023-06-19T02:28:38;6.80;;;4.63;;
68216;SDS011;55037;52.354;4.992;2023-06-19T02:31:06;4.63;;;3.23;;
68216;SDS011;55037;52.354;4.992;2023-06-19T02:33:34;4.43;;;3.38;;
68216;SDS011;55037;52.354;4.992;2023-06-19T02:36:01;9.70;;;4.13;;
68216;SDS011;55037;52.354;4.992;2023-06-19T02:38:28;5.47;;;3.97;;
68216;SDS011;55037;52.354;4.992;2023-06-19T02:40:56;6.38;;;4.53;;
68216;SDS011;55037;52.354;4.992;2023-06-19T02:43:29;7.33;;;4.90;;
68216;SDS011;55037;52.354;4.992;2023-06-19T02:45:57;5.05;;;3.20;;
68216;SDS011;55037;52.354;4.992;2023-06-19T02:48:24;5.40;;;4.35;;
68216;SDS011;55037;52.354;4.992;2023-06-19T02:50:53;9.90;;;5.57;;
68216;SDS011;55037;52.354;4.992;2023-06-19T02:53:20;8.02;;;4.72;;
68216;SDS011;55037;52.354;4.992;2023-06-19T02:55:47;5.20;;;3.67;;
68216;SDS011;55037;52.354;4.992;2023-06-19T02:58:15;7.22;;;4.85;;
68216;SDS011;55037;52.354;4.992;2023-06-19T03:00:42;8.70;;;5.97;;
68216;SDS011;55037;52.354;4.992;2023-06-19T03:03:09;7.05;;;4.75;;
68216;SDS011;55037;52.354;4.992;2023-06-19T03:05:38;5.93;;;4.72;;
68216;SDS011;55037;52.354;4.992;2023-06-19T03:08:05;9.50;;;5.33;;
68216;SDS011;55037;52.354;4.992;2023-06-19T03:10:33;7.18;;;3.95;;
68216;SDS011;55037;52.354;4.992;2023-06-19T03:13:01;7.97;;;5.38;;
68216;SDS011;55037;52.354;4.992;2023-06-19T03:15:28;6.63;;;4.65;;
68216;SDS011;55037;52.354;4.992;2023-06-19T03:17:55;6.72;;;4.80;;
68216;SDS011;55037;52.354;4.992;2023-06-19T03:20:24;6.27;;;5.10;;
68216;SDS011;55037;52.354;4.992;2023-06-19T03:22:56;7.78;;;5.70;;
68216;SDS011;55037;52.354;4.992;2023-06-19T03:25:24;10.15;;;5.95;;
68216;SDS011;55037;52.354;4.992;2023-06-19T03:27:52;7.72;;;5.60;;
68216;SDS011;55037;52.354;4.992;2023-06-19T03:30:19;10.35;;;7.05;;
68216;SDS011;55037;52.354;4.992;2023-06-19T03:32:50;12.13;;;8.37;;
68216;SDS011;55037;52.354;4.992;2023-06-19T03:35:35;15.05;;;10.45;;
68216;SDS011;55037;52.354;4.992;2023-06-19T03:38:02;16.98;;;11.80;;
68216;SDS011;55037;52.354;4.992;2023-06-19T03:40:30;15.63;;;10.98;;
68216;SDS011;55037;52.354;4.992;2023-06-19T03:43:02;23.10;;;15.52;;
68216;SDS011;55037;52.354;4.992;2023-06-19T03:45:29;28.10;;;15.33;;
68216;SDS011;55037;52.354;4.992;2023-06-19T03:47:57;22.48;;;15.18;;
68216;SDS011;55037;52.354;4.992;2023-06-19T03:50:24;23.38;;;14.15;;
68216;SDS011;55037;52.354;4.992;2023-06-19T03:52:54;28.02;;;17.95;;
68216;SDS011;55037;52.354;4.992;2023-06-19T03:55:21;15.70;;;11.40;;
68216;SDS011;55037;52.354;4.992;2023-06-19T03:57:49;16.23;;;10.10;;
68216;SDS011;55037;52.354;4.992;2023-06-19T04:00:16;22.05;;;14.70;;
68216;SDS011;55037;52.354;4.992;2023-06-19T04:02:48;21.95;;;11.73;;
68216;SDS011;55037;52.354;4.992;2023-06-19T04:05:15;22.60;;;13.65;;
68216;SDS011;55037;52.354;4.992;2023-06-19T04:07:43;9.95;;;6.53;;
68216;SDS011;55037;52.354;4.992;2023-06-19T04:10:13;20.53;;;12.83;;
68216;SDS011;55037;52.354;4.992;2023-06-19T04:12:41;18.40;;;11.60;;
68216;SDS011;55037;52.354;4.992;2023-06-19T04:15:09;18.33;;;10.40;;
68216;SDS011;55037;52.354;4.992;2023-06-19T04:17:36;16.38;;;11.02;;
68216;SDS011;55037;52.354;4.992;2023-06-19T04:20:04;10.63;;;7.10;;
68216;SDS011;55037;52.354;4.992;2023-06-19T04:22:47;12.33;;;8.43;;
68216;SDS011;55037;52.354;4.992;2023-06-19T04:25:14;11.68;;;8.98;;
68216;SDS011;55037;52.354;4.992;2023-06-19T04:27:41;8.30;;;5.53;;
68216;SDS011;55037;52.354;4.992;2023-06-19T04:30:11;10.65;;;7.88;;
68216;SDS011;55037;52.354;4.992;2023-06-19T04:32:39;16.00;;;10.90;;
68216;SDS011;55037;52.354;4.992;2023-06-19T04:35:08;21.77;;;12.80;;
68216;SDS011;55037;52.354;4.992;2023-06-19T04:37:36;28.55;;;16.00;;
68216;SDS011;55037;52.354;4.992;2023-06-19T04:40:03;22.45;;;12.88;;
68216;SDS011;55037;52.354;4.992;2023-06-19T04:42:34;25.35;;;14.35;;
68216;SDS011;55037;52.354;4.992;2023-06-19T04:45:01;25.73;;;13.60;;
68216;SDS011;55037;52.354;4.992;2023-06-19T04:47:28;34.40;;;16.97;;
68216;SDS011;55037;52.354;4.992;2023-06-19T04:50:09;32.78;;;17.92;;
68216;SDS011;55037;52.354;4.992;2023-06-19T04:52:37;26.08;;;15.45;;
68216;SDS011;55037;52.354;4.992;2023-06-19T04:55:05;37.58;;;20.95;;
68216;SDS011;55037;52.354;4.992;2023-06-19T04:57:36;51.97;;;24.52;;
68216;SDS011;55037;52.354;4.992;2023-06-19T05:00:04;40.73;;;20.83;;
68216;SDS011;55037;52.354;4.992;2023-06-19T05:02:33;42.13;;;21.75;;
68216;SDS011;55037;52.354;4.992;2023-06-19T05:05:01;35.95;;;18.98;;
68216;SDS011;55037;52.354;4.992;2023-06-19T05:07:30;31.83;;;17.42;;
68216;SDS011;55037;52.354;4.992;2023-06-19T05:09:58;31.80;;;15.00;;
68216;SDS011;55037;52.354;4.992;2023-06-19T05:12:26;22.23;;;11.77;;
68216;SDS011;55037;52.354;4.992;2023-06-19T05:14:53;26.83;;;13.20;;
68216;SDS011;55037;52.354;4.992;2023-06-19T05:17:20;31.35;;;18.27;;
68216;SDS011;55037;52.354;4.992;2023-06-19T05:19:48;22.90;;;12.90;;
68216;SDS011;55037;52.354;4.992;2023-06-19T05:22:18;24.63;;;13.50;;
68216;SDS011;55037;52.354;4.992;2023-06-19T05:24:48;24.40;;;15.37;;
68216;SDS011;55037;52.354;4.992;2023-06-19T05:27:15;23.75;;;12.07;;
68216;SDS011;55037;52.354;4.992;2023-06-19T05:29:42;17.92;;;10.13;;
68216;SDS011;55037;52.354;4.992;2023-06-19T05:32:10;18.63;;;11.05;;
68216;SDS011;55037;52.354;4.992;2023-06-19T05:34:37;17.90;;;11.73;;
68216;SDS011;55037;52.354;4.992;2023-06-19T05:37:04;21.40;;;12.43;;
68216;SDS011;55037;52.354;4.992;2023-06-19T05:39:32;20.38;;;12.30;;
68216;SDS011;55037;52.354;4.992;2023-06-19T05:41:59;17.17;;;11.18;;
68216;SDS011;55037;52.354;4.992;2023-06-19T05:44:26;15.70;;;10.07;;
68216;SDS011;55037;52.354;4.992;2023-06-19T05:46:53;13.85;;;9.10;;
68216;SDS011;55037;52.354;4.992;2023-06-19T05:49:21;10.97;;;8.30;;
68216;SDS011;55037;52.354;4.992;2023-06-19T05:51:48;16.90;;;10.25;;
68216;SDS011;55037;52.354;4.992;2023-06-19T05:54:15;16.23;;;9.25;;
68216;SDS011;55037;52.354;4.992;2023-06-19T05:56:44;13.68;;;8.90;;
68216;SDS011;55037;52.354;4.992;2023-06-19T05:59:11;13.93;;;8.20;;
68216;SDS011;55037;52.354;4.992;2023-06-19T06:01:41;11.37;;;6.80;;
68216;SDS011;55037;52.354;4.992;2023-06-19T06:04:09;13.25;;;7.95;;
68216;SDS011;55037;52.354;4.992;2023-06-19T06:06:36;17.27;;;9.73;;
68216;SDS011;55037;52.354;4.992;2023-06-19T06:09:06;15.43;;;8.80;;
68216;SDS011;55037;52.354;4.992;2023-06-19T06:11:36;12.95;;;7.32;;
68216;SDS011;55037;52.354;4.992;2023-06-19T06:14:04;11.93;;;7.57;;
68216;SDS011;55037;52.354;4.992;2023-06-19T06:16:31;11.68;;;8.15;;
68216;SDS011;55037;52.354;4.992;2023-06-19T06:18:58;11.00;;;7.47;;
68216;SDS011;55037;52.354;4.992;2023-06-19T06:21:26;15.10;;;7.75;;
68216;SDS011;55037;52.354;4.992;2023-06-19T06:23:53;17.13;;;10.45;;
68216;SDS011;55037;52.354;4.992;2023-06-19T06:26:22;13.47;;;9.27;;
68216;SDS011;55037;52.354;4.992;2023-06-19T06:28:49;13.82;;;8.73;;
68216;SDS011;55037;52.354;4.992;2023-06-19T06:31:16;15.65;;;9.05;;
68216;SDS011;55037;52.354;4.992;2023-06-19T06:33:44;12.73;;;8.30;;
68216;SDS011;55037;52.354;4.992;2023-06-19T06:36:14;12.95;;;8.43;;
68216;SDS011;55037;52.354;4.992;2023-06-19T06:38:55;15.13;;;9.23;;
68216;SDS011;55037;52.354;4.992;2023-06-19T06:41:22;15.70;;;10.20;;
68216;SDS011;55037;52.354;4.992;2023-06-19T06:43:50;16.02;;;9.95;;
68216;SDS011;55037;52.354;4.992;2023-06-19T06:46:17;16.60;;;10.77;;
68216;SDS011;55037;52.354;4.992;2023-06-19T06:48:44;16.63;;;10.70;;
68216;SDS011;55037;52.354;4.992;2023-06-19T06:51:11;15.97;;;9.93;;
68216;SDS011;55037;52.354;4.992;2023-06-19T06:53:39;17.40;;;11.48;;
68216;SDS011;55037;52.354;4.992;2023-06-19T06:56:06;16.50;;;10.65;;
68216;SDS011;55037;52.354;4.992;2023-06-19T06:58:33;21.88;;;12.50;;
68216;SDS011;55037;52.354;4.992;2023-06-19T07:01:01;15.93;;;9.98;;
68216;SDS011;55037;52.354;4.992;2023-06-19T07:03:30;22.67;;;13.97;;
68216;SDS011;55037;52.354;4.992;2023-06-19T07:05:59;21.80;;;13.43;;
68216;SDS011;55037;52.354;4.992;2023-06-19T07:08:26;21.08;;;11.77;;
68216;SDS011;55037;52.354;4.992;2023-06-19T07:10:53;19.83;;;11.63;;
68216;SDS011;55037;52.354;4.992;2023-06-19T07:13:21;21.50;;;13.40;;
68216;SDS011;55037;52.354;4.992;2023-06-19T07:15:48;26.97;;;15.03;;
68216;SDS011;55037;52.354;4.992;2023-06-19T07:18:15;16.27;;;10.27;;
68216;SDS011;55037;52.354;4.992;2023-06-19T07:20:43;23.08;;;12.20;;
68216;SDS011;55037;52.354;4.992;2023-06-19T07:23:10;15.35;;;9.73;;
68216;SDS011;55037;52.354;4.992;2023-06-19T07:25:37;16.38;;;9.90;;
68216;SDS011;55037;52.354;4.992;2023-06-19T07:28:05;15.70;;;9.67;;
68216;SDS011;55037;52.354;4.992;2023-06-19T07:30:32;15.48;;;9.52;;
68216;SDS011;55037;52.354;4.992;2023-06-19T07:32:59;19.80;;;11.48;;
68216;SDS011;55037;52.354;4.992;2023-06-19T07:35:26;20.27;;;11.93;;
68216;SDS011;55037;52.354;4.992;2023-06-19T07:37:54;19.33;;;12.00;;
68216;SDS011;55037;52.354;4.992;2023-06-19T07:40:21;16.40;;;11.17;;
68216;SDS011;55037;52.354;4.992;2023-06-19T07:42:49;17.73;;;11.35;;
68216;SDS011;55037;52.354;4.992;2023-06-19T07:45:16;17.35;;;8.88;;
68216;SDS011;55037;52.354;4.992;2023-06-19T07:47:44;15.25;;;9.82;;
68216;SDS011;55037;52.354;4.992;2023-06-19T07:50:20;12.88;;;8.20;;
68216;SDS011;55037;52.354;4.992;2023-06-19T07:52:49;17.47;;;9.43;;
68216;SDS011;55037;52.354;4.992;2023-06-19T07:55:17;15.52;;;9.63;;
68216;SDS011;55037;52.354;4.992;2023-06-19T07:57:44;11.68;;;7.85;;
68216;SDS011;55037;52.354;4.992;2023-06-19T08:00:11;16.90;;;10.43;;
68216;SDS011;55037;52.354;4.992;2023-06-19T08:02:40;15.27;;;9.13;;
68216;SDS011;55037;52.354;4.992;2023-06-19T08:05:08;10.63;;;7.00;;
68216;SDS011;55037;52.354;4.992;2023-06-19T08:07:37;14.80;;;9.05;;
68216;SDS011;55037;52.354;4.992;2023-06-19T08:10:05;13.98;;;9.88;;
68216;SDS011;55037;52.354;4.992;2023-06-19T08:12:42;14.02;;;8.90;;
68216;SDS011;55037;52.354;4.992;2023-06-19T08:15:11;17.02;;;9.88;;
68216;SDS011;55037;52.354;4.992;2023-06-19T08:17:40;15.50;;;7.97;;
68216;SDS011;55037;52.354;4.992;2023-06-19T08:20:08;13.35;;;7.97;;
68216;SDS011;55037;52.354;4.992;2023-06-19T08:22:36;14.57;;;9.00;;
68216;SDS011;55037;52.354;4.992;2023-06-19T08:25:04;12.98;;;7.40;;
68216;SDS011;55037;52.354;4.992;2023-06-19T08:27:31;11.23;;;7.80;;
68216;SDS011;55037;52.354;4.992;2023-06-19T08:29:58;13.17;;;9.20;;
68216;SDS011;55037;52.354;4.992;2023-06-19T08:32:26;13.93;;;7.95;;
68216;SDS011;55037;52.354;4.992;2023-06-19T08:34:53;10.68;;;6.28;;
68216;SDS011;55037;52.354;4.992;2023-06-19T08:37:21;13.90;;;8.57;;
68216;SDS011;55037;52.354;4.992;2023-06-19T08:39:48;9.45;;;5.93;;
68216;SDS011;55037;52.354;4.992;2023-06-19T08:42:15;10.50;;;6.87;;
68216;SDS011;55037;52.354;4.992;2023-06-19T08:44:43;11.98;;;8.15;;
68216;SDS011;55037;52.354;4.992;2023-06-19T08:47:10;11.88;;;7.38;;
68216;SDS011;55037;52.354;4.992;2023-06-19T08:49:38;12.32;;;7.47;;
68216;SDS011;55037;52.354;4.992;2023-06-19T08:52:06;12.45;;;8.25;;
68216;SDS011;55037;52.354;4.992;2023-06-19T08:54:34;12.20;;;7.77;;
68216;SDS011;55037;52.354;4.992;2023-06-19T08:57:10;11.90;;;7.53;;
68216;SDS011;55037;52.354;4.992;2023-06-19T08:59:39;15.25;;;8.43;;
68216;SDS011;55037;52.354;4.992;2023-06-19T09:02:14;12.40;;;7.10;;
68216;SDS011;55037;52.354;4.992;2023-06-19T09:04:41;13.93;;;9.18;;
68216;SDS011;55037;52.354;4.992;2023-06-19T09:07:09;13.20;;;8.60;;
68216;SDS011;55037;52.354;4.992;2023-06-19T09:09:46;14.07;;;8.82;;
68216;SDS011;55037;52.354;4.992;2023-06-19T09:12:13;14.23;;;9.55;;
68216;SDS011;55037;52.354;4.992;2023-06-19T09:14:45;11.10;;;7.53;;
68216;SDS011;55037;52.354;4.992;2023-06-19T09:17:14;12.98;;;8.13;;
68216;SDS011;55037;52.354;4.992;2023-06-19T09:19:51;14.53;;;9.57;;
68216;SDS011;55037;52.354;4.992;2023-06-19T09:22:22;12.48;;;9.25;;
68216;SDS011;55037;52.354;4.992;2023-06-19T09:24:51;15.25;;;9.30;;
68216;SDS011;55037;52.354;4.992;2023-06-19T09:27:19;12.45;;;7.03;;
68216;SDS011;55037;52.354;4.992;2023-06-19T09:29:47;14.77;;;9.75;;
68216;SDS011;55037;52.354;4.992;2023-06-19T09:32:21;13.20;;;8.93;;
68216;SDS011;55037;52.354;4.992;2023-06-19T09:34:51;12.32;;;8.80;;
68216;SDS011;55037;52.354;4.992;2023-06-19T09:39:55;10.52;;;8.00;;
68216;SDS011;55037;52.354;4.992;2023-06-19T09:42:31;14.60;;;9.05;;
68216;SDS011;55037;52.354;4.992;2023-06-19T09:45:00;16.37;;;9.30;;
68216;SDS011;55037;52.354;4.992;2023-06-19T09:47:32;12.27;;;8.43;;
68216;SDS011;55037;52.354;4.992;2023-06-19T09:50:15;13.63;;;8.95;;
68216;SDS011;55037;52.354;4.992;2023-06-19T09:52:47;14.88;;;9.15;;
68216;SDS011;55037;52.354;4.992;2023-06-19T09:55:17;12.98;;;9.35;;
68216;SDS011;55037;52.354;4.992;2023-06-19T09:57:46;15.20;;;10.07;;
68216;SDS011;55037;52.354;4.992;2023-06-19T10:00:15;13.98;;;10.05;;
68216;SDS011;55037;52.354;4.992;2023-06-19T10:02:49;15.65;;;9.30;;
68216;SDS011;55037;52.354;4.992;2023-06-19T10:05:16;15.52;;;9.35;;
68216;SDS011;55037;52.354;4.992;2023-06-19T10:07:54;16.00;;;8.77;;
68216;SDS011;55037;52.354;4.992;2023-06-19T10:10:27;19.23;;;10.70;;
68216;SDS011;55037;52.354;4.992;2023-06-19T10:12:58;15.82;;;10.15;;
68216;SDS011;55037;52.354;4.992;2023-06-19T10:15:28;16.10;;;10.57;;
68216;SDS011;55037;52.354;4.992;2023-06-19T10:20:28;14.05;;;10.13;;
68216;SDS011;55037;52.354;4.992;2023-06-19T10:23:03;13.13;;;8.37;;
68216;SDS011;55037;52.354;4.992;2023-06-19T10:25:33;13.35;;;10.00;;
68216;SDS011;55037;52.354;4.992;2023-06-19T10:28:03;16.83;;;9.88;;
68216;SDS011;55037;52.354;4.992;2023-06-19T10:30:42;17.48;;;11.93;;
68216;SDS011;55037;52.354;4.992;2023-06-19T10:33:09;16.38;;;11.45;;
68216;SDS011;55037;52.354;4.992;2023-06-19T10:35:37;14.77;;;9.30;;
68216;SDS011;55037;52.354;4.992;2023-06-19T10:38:07;16.35;;;11.30;;
68216;SDS011;55037;52.354;4.992;2023-06-19T10:40:36;14.50;;;10.82;;
68216;SDS011;55037;52.354;4.992;2023-06-19T10:43:04;14.13;;;10.05;;
68216;SDS011;55037;52.354;4.992;2023-06-19T10:45:31;9.15;;;6.82;;
68216;SDS011;55037;52.354;4.992;2023-06-19T10:48:02;17.37;;;11.17;;
68216;SDS011;55037;52.354;4.992;2023-06-19T10:50:34;13.85;;;10.57;;
68216;SDS011;55037;52.354;4.992;2023-06-19T10:53:05;15.60;;;10.35;;
68216;SDS011;55037;52.354;4.992;2023-06-19T10:55:32;12.32;;;7.85;;
68216;SDS011;55037;52.354;4.992;2023-06-19T10:58:02;14.02;;;9.77;;
68216;SDS011;55037;52.354;4.992;2023-06-19T11:00:30;13.03;;;9.33;;
68216;SDS011;55037;52.354;4.992;2023-06-19T11:03:00;11.95;;;9.93;;
68216;SDS011;55037;52.354;4.992;2023-06-19T11:05:27;13.18;;;10.48;;
68216;SDS011;55037;52.354;4.992;2023-06-19T11:07:56;13.02;;;10.38;;
68216;SDS011;55037;52.354;4.992;2023-06-19T11:10:25;15.45;;;10.82;;
68216;SDS011;55037;52.354;4.992;2023-06-19T11:12:55;12.73;;;10.30;;
68216;SDS011;55037;52.354;4.992;2023-06-19T11:15:30;13.73;;;10.55;;
68216;SDS011;55037;52.354;4.992;2023-06-19T11:17:59;11.02;;;9.82;;
68216;SDS011;55037;52.354;4.992;2023-06-19T11:20:28;15.27;;;10.07;;
68216;SDS011;55037;52.354;4.992;2023-06-19T11:22:58;12.48;;;9.75;;
68216;SDS011;55037;52.354;4.992;2023-06-19T11:25:36;14.73;;;10.83;;
68216;SDS011;55037;52.354;4.992;2023-06-19T11:28:10;15.13;;;10.30;;
68216;SDS011;55037;52.354;4.992;2023-06-19T11:30:40;12.40;;;9.85;;
68216;SDS011;55037;52.354;4.992;2023-06-19T11:35:53;11.00;;;9.30;;
68216;SDS011;55037;52.354;4.992;2023-06-19T11:38:26;13.40;;;10.33;;
68216;SDS011;55037;52.354;4.992;2023-06-19T11:40:55;11.10;;;9.68;;
68216;SDS011;55037;52.354;4.992;2023-06-19T11:43:27;13.50;;;9.45;;
68216;SDS011;55037;52.354;4.992;2023-06-19T11:46:01;9.73;;;8.05;;
68216;SDS011;55037;52.354;4.992;2023-06-19T11:48:32;11.05;;;8.90;;
68216;SDS011;55037;52.354;4.992;2023-06-19T11:51:03;11.77;;;9.30;;
68216;SDS011;55037;52.354;4.992;2023-06-19T11:53:33;12.48;;;8.50;;
68216;SDS011;55037;52.354;4.992;2023-06-19T11:56:00;10.05;;;7.85;;
68216;SDS011;55037;52.354;4.992;2023-06-19T11:58:28;13.18;;;8.98;;
68216;SDS011;55037;52.354;4.992;2023-06-19T12:00:55;10.63;;;8.57;;
68216;SDS011;55037;52.354;4.992;2023-06-19T12:03:23;11.47;;;8.53;;
68216;SDS011;55037;52.354;4.992;2023-06-19T12:05:50;9.63;;;8.27;;
68216;SDS011;55037;52.354;4.992;2023-06-19T12:08:18;11.32;;;7.90;;
68216;SDS011;55037;52.354;4.992;2023-06-19T12:10:45;10.60;;;8.02;;
68216;SDS011;55037;52.354;4.992;2023-06-19T12:13:12;10.20;;;7.70;;
68216;SDS011;55037;52.354;4.992;2023-06-19T12:15:39;10.50;;;8.13;;
68216;SDS011;55037;52.354;4.992;2023-06-19T12:18:07;10.82;;;7.65;;
68216;SDS011;55037;52.354;4.992;2023-06-19T12:20:34;12.55;;;8.10;;
68216;SDS011;55037;52.354;4.992;2023-06-19T12:23:02;9.85;;;8.00;;
68216;SDS011;55037;52.354;4.992;2023-06-19T12:25:29;8.48;;;7.57;;
68216;SDS011;55037;52.354;4.992;2023-06-19T12:27:57;8.97;;;7.20;;
68216;SDS011;55037;52.354;4.992;2023-06-19T12:30:24;9.32;;;7.10;;
68216;SDS011;55037;52.354;4.992;2023-06-19T12:32:52;10.32;;;7.78;;
68216;SDS011;55037;52.354;4.992;2023-06-19T12:35:19;12.07;;;7.07;;
68216;SDS011;55037;52.354;4.992;2023-06-19T12:37:47;9.32;;;6.85;;
68216;SDS011;55037;52.354;4.992;2023-06-19T12:40:14;8.73;;;6.23;;
68216;SDS011;55037;52.354;4.992;2023-06-19T12:42:43;7.70;;;5.82;;
68216;SDS011;55037;52.354;4.992;2023-06-19T12:45:10;8.13;;;6.50;;
68216;SDS011;55037;52.354;4.992;2023-06-19T12:47:38;9.05;;;6.20;;
68216;SDS011;55037;52.354;4.992;2023-06-19T12:50:05;8.25;;;5.60;;
68216;SDS011;55037;52.354;4.992;2023-06-19T12:52:33;7.00;;;6.00;;
68216;SDS011;55037;52.354;4.992;2023-06-19T12:55:00;7.78;;;5.95;;
68216;SDS011;55037;52.354;4.992;2023-06-19T12:57:28;8.60;;;6.15;;
68216;SDS011;55037;52.354;4.992;2023-06-19T12:59:55;6.50;;;5.60;;
68216;SDS011;55037;52.354;4.992;2023-06-19T13:02:23;7.72;;;5.70;;
68216;SDS011;55037;52.354;4.992;2023-06-19T13:04:51;7.13;;;5.20;;
68216;SDS011;55037;52.354;4.992;2023-06-19T13:07:18;7.00;;;5.50;;
68216;SDS011;55037;52.354;4.992;2023-06-19T13:09:46;6.68;;;5.60;;
68216;SDS011;55037;52.354;4.992;2023-06-19T13:12:13;7.82;;;5.65;;
68216;SDS011;55037;52.354;4.992;2023-06-19T13:14:40;10.02;;;5.88;;
68216;SDS011;55037;52.354;4.992;2023-06-19T13:17:08;7.23;;;5.73;;
68216;SDS011;55037;52.354;4.992;2023-06-19T13:19:36;7.47;;;5.45;;
68216;SDS011;55037;52.354;4.992;2023-06-19T13:22:03;7.32;;;5.60;;
68216;SDS011;55037;52.354;4.992;2023-06-19T13:24:30;7.15;;;5.80;;
68216;SDS011;55037;52.354;4.992;2023-06-19T13:26:58;7.90;;;6.22;;
68216;SDS011;55037;52.354;4.992;2023-06-19T13:29:25;7.43;;;5.77;;
68216;SDS011;55037;52.354;4.992;2023-06-19T13:31:53;7.28;;;5.68;;
68216;SDS011;55037;52.354;4.992;2023-06-19T13:34:20;8.65;;;6.40;;
68216;SDS011;55037;52.354;4.992;2023-06-19T13:36:48;7.45;;;5.95;;
68216;SDS011;55037;52.354;4.992;2023-06-19T13:39:16;7.95;;;6.90;;
68216;SDS011;55037;52.354;4.992;2023-06-19T13:41:46;7.93;;;6.70;;
68216;SDS011;55037;52.354;4.992;2023-06-19T13:44:13;7.28;;;6.38;;
68216;SDS011;55037;52.354;4.992;2023-06-19T13:46:41;7.07;;;5.78;;
68216;SDS011;55037;52.354;4.992;2023-06-19T13:49:09;7.50;;;6.43;;
68216;SDS011;55037;52.354;4.992;2023-06-19T13:51:37;9.95;;;7.05;;
68216;SDS011;55037;52.354;4.992;2023-06-19T13:54:05;8.10;;;6.43;;
68216;SDS011;55037;52.354;4.992;2023-06-19T13:56:32;8.75;;;6.10;;
68216;SDS011;55037;52.354;4.992;2023-06-19T13:58:59;7.70;;;6.40;;
68216;SDS011;55037;52.354;4.992;2023-06-19T14:01:27;8.45;;;6.68;;
68216;SDS011;55037;52.354;4.992;2023-06-19T14:03:57;8.13;;;6.75;;
68216;SDS011;55037;52.354;4.992;2023-06-19T14:06:25;9.20;;;7.13;;
68216;SDS011;55037;52.354;4.992;2023-06-19T14:08:52;10.80;;;6.70;;
68216;SDS011;55037;52.354;4.992;2023-06-19T14:11:20;8.07;;;6.78;;
68216;SDS011;55037;52.354;4.992;2023-06-19T14:13:47;8.75;;;6.93;;
68216;SDS011;55037;52.354;4.992;2023-06-19T14:16:15;9.60;;;7.30;;
68216;SDS011;55037;52.354;4.992;2023-06-19T14:18:42;9.70;;;7.23;;
68216;SDS011;55037;52.354;4.992;2023-06-19T14:21:10;11.57;;;7.80;;
68216;SDS011;55037;52.354;4.992;2023-06-19T14:23:37;11.35;;;8.05;;
68216;SDS011;55037;52.354;4.992;2023-06-19T14:26:07;9.57;;;7.55;;
68216;SDS011;55037;52.354;4.992;2023-06-19T14:28:34;11.57;;;7.57;;
68216;SDS011;55037;52.354;4.992;2023-06-19T14:31:01;10.97;;;8.27;;
68216;SDS011;55037;52.354;4.992;2023-06-19T14:33:28;12.30;;;7.50;;
68216;SDS011;55037;52.354;4.992;2023-06-19T14:35:56;10.73;;;7.40;;
68216;SDS011;55037;52.354;4.992;2023-06-19T14:38:23;10.10;;;7.07;;
68216;SDS011;55037;52.354;4.992;2023-06-19T14:40:54;11.93;;;8.20;;
68216;SDS011;55037;52.354;4.992;2023-06-19T14:43:24;9.40;;;7.60;;
68216;SDS011;55037;52.354;4.992;2023-06-19T14:45:51;11.27;;;8.38;;
68216;SDS011;55037;52.354;4.992;2023-06-19T14:48:19;9.90;;;7.63;;
68216;SDS011;55037;52.354;4.992;2023-06-19T14:50:46;12.63;;;8.30;;
68216;SDS011;55037;52.354;4.992;2023-06-19T14:53:13;11.82;;;7.57;;
68216;SDS011;55037;52.354;4.992;2023-06-19T14:55:41;11.40;;;8.00;;